Laughlin Air Force Base
KDLF : now visible

Airfield :











YOU CAN JOIN US ON...

 
LOGIN :

Register | Disclaimer

   EN    FR    IT 

 









Legend :    VFR   Marginal VFR   IFR   Intensive IFR   Very Intensive IFR
Visi :
Ceiling :
>= 8 km
>= 3000ft
5 to 8 km
1000 to 3000 ft
1500m to 5 km
500 to 1000 ft
800 to 1500m
200 to 500 ft
< 800m
< 200 ft
Symbols :   Thunderstorms  Fog  Heavy snow  Heavy precipitations  Wind > 20 kt






- Airport Elevation : 1082 ft


KDLF - Laughlin Air Force Base

CURRENT METAR :
  • 182255Z AUTO 10006KT 10SM FEW070 FEW210 36/18 A2993 RMK AO2 SLP120 T03600176 $

EXPIRED METARs :
  • 182155Z AUTO 06007KT 10SM CLR 37/17 A2995 RMK AO2 SLP127 T03670173 $
  • 182055Z AUTO 00000KT 10SM CLR 36/17 A2998 RMK AO2 SLP137 T03580174 57024 $
  • 182039Z AUTO 03010G18KT 10SM FEW060 36/18 A2999 RMK AO2 WSHFT 36 SLP140 $
  • 182025Z AUTO 02014KT 10SM FEW060 FEW210 36/18 A3000 RMK AO2 WSHFT 15 SLP144 $
  • 181955Z AUTO 04008G20KT 10SM CLR 35/18 A3002 RMK AO2 SLP151 T03470182 $
  • 181855Z AUTO 09016KT 10SM FEW140 FEW160 SCT200 34/19 A3005 RMK AO2 SLP161 T03390191 $

TAF AMD TAF KDLF
Valid from the 18 at 21:00 until the 20 at 00:00 UTC


182100Z 1821/1924 03009KT 9999 FEW040 SCT200 QNH2994INS
BECMG 1901/1902 08008KT 9999 FEW060 SCT200 QNH2999INS
BECMG 1915/1916 12012KT 9999 FEW090 QNH3003INS
TEMPO 1920/1923 06015G25KT 6000 -TSRA BKN030CB TX36/1821Z TN25/1911Z
KZHU FIR / North America



MET'MAP, your aeronautical weather chart ! - Copyright ORBIFLY December 2007 - Disclaimer

ORBIFLY MET'MAP TEAM :

Programming & Development : Alexandra Zaïnal
Original concept : Baudouin d'Aumeries
Technical & hardware support : Manuel Goepfert
Assistance : Marc-Olivier Méhu




SOURCES & CREDITS :

   NOAA       Earth
Advisory